Minot Air Force Base
KMIB : now visible

Airfield :











YOU CAN JOIN US ON...

 
LOGIN :

Register | Disclaimer

   EN    FR    IT 

 









Legend :    VFR   Marginal VFR   IFR   Intensive IFR   Very Intensive IFR
Visi :
Ceiling :
>= 8 km
>= 3000ft
5 to 8 km
1000 to 3000 ft
1500m to 5 km
500 to 1000 ft
800 to 1500m
200 to 500 ft
< 800m
< 200 ft
Symbols :   Thunderstorms  Fog  Heavy snow  Heavy precipitations  Wind > 20 kt






- Airport Elevation : 1667 ft


KMIB - Minot Air Force Base

CURRENT METAR :
  • 121556Z AUTO 23013G18KT 10SM FEW120 FEW190 17/M02 A3019 RMK AO2 SLP234 T01701017 $

EXPIRED METARs :
  • 121456Z AUTO 24011KT 10SM FEW130 17/00 A3019 RMK AO2 SLP232 T01700002 $
  • 121356Z AUTO 24014KT 10SM CLR 14/M01 A3021 RMK AO2 SLP239 T01431010 $

TAF TAF KMIB
Valid from the 12 at 09:00 until the 13 at 15:00 UTC


120900Z 1209/1315 22009KT 9999 FEW100 QNH3021INS
BECMG 1214/1215 20010G15KT 9999 SCT060 QNH3011INS
BECMG 1301/1302 VRB06KT 6000 SHRA OVC040 620405 QNH3009INS
BECMG 1307/1308 VRB06KT 9999 NSW BKN050 620505 QNH3009INS TX22/1222Z TN03/1211Z
KZMP FIR / North America



MET'MAP, your aeronautical weather chart ! - Copyright ORBIFLY December 2007 - Disclaimer

ORBIFLY MET'MAP TEAM :

Programming & Development : Alexandra Zaïnal
Concept & original design : Baudouin d'Aumeries
Assistance for programming : Marc-Olivier Méhu
Technical & hardware support : Manuel Goepfert

Contact : metmap@orbifly.com




SOURCES & CREDITS :

   NOAA       Earth
Advisory